sensor_id;sensor_type;location;lat;lon;timestamp;P1;durP1;ratioP1;P2;durP2;ratioP2
21697;SDS011;11010;49.548;11.926;2023-04-21T00:01:41;17.77;;;8.33;;
21697;SDS011;11010;49.548;11.926;2023-04-21T00:04:08;19.93;;;8.77;;
21697;SDS011;11010;49.548;11.926;2023-04-21T00:06:39;17.37;;;7.87;;
21697;SDS011;11010;49.548;11.926;2023-04-21T00:09:07;22.10;;;9.20;;
21697;SDS011;11010;49.548;11.926;2023-04-21T00:11:35;18.10;;;8.37;;
21697;SDS011;11010;49.548;11.926;2023-04-21T00:14:02;16.90;;;7.97;;
21697;SDS011;11010;49.548;11.926;2023-04-21T00:16:29;19.63;;;8.43;;
21697;SDS011;11010;49.548;11.926;2023-04-21T00:18:57;17.93;;;8.73;;
21697;SDS011;11010;49.548;11.926;2023-04-21T00:21:24;18.97;;;8.60;;
21697;SDS011;11010;49.548;11.926;2023-04-21T00:23:52;19.03;;;8.37;;
21697;SDS011;11010;49.548;11.926;2023-04-21T00:26:19;18.53;;;8.87;;
21697;SDS011;11010;49.548;11.926;2023-04-21T00:28:48;17.70;;;8.20;;
21697;SDS011;11010;49.548;11.926;2023-04-21T00:31:15;17.30;;;8.33;;
21697;SDS011;11010;49.548;11.926;2023-04-21T00:33:42;19.73;;;8.93;;
21697;SDS011;11010;49.548;11.926;2023-04-21T00:36:09;19.70;;;8.27;;
21697;SDS011;11010;49.548;11.926;2023-04-21T00:38:36;18.73;;;8.37;;
21697;SDS011;11010;49.548;11.926;2023-04-21T00:41:05;19.93;;;9.17;;
21697;SDS011;11010;49.548;11.926;2023-04-21T00:43:33;21.10;;;9.40;;
21697;SDS011;11010;49.548;11.926;2023-04-21T00:46:00;19.10;;;8.13;;
21697;SDS011;11010;49.548;11.926;2023-04-21T00:48:27;20.43;;;9.00;;
21697;SDS011;11010;49.548;11.926;2023-04-21T00:50:54;18.47;;;8.43;;
21697;SDS011;11010;49.548;11.926;2023-04-21T00:53:21;18.77;;;7.83;;
21697;SDS011;11010;49.548;11.926;2023-04-21T00:55:49;18.80;;;8.57;;
21697;SDS011;11010;49.548;11.926;2023-04-21T00:58:17;18.73;;;8.43;;
21697;SDS011;11010;49.548;11.926;2023-04-21T01:00:44;17.50;;;8.17;;
21697;SDS011;11010;49.548;11.926;2023-04-21T01:03:11;19.43;;;9.03;;
21697;SDS011;11010;49.548;11.926;2023-04-21T01:05:40;20.70;;;8.57;;
21697;SDS011;11010;49.548;11.926;2023-04-21T01:08:10;18.97;;;8.13;;
21697;SDS011;11010;49.548;11.926;2023-04-21T01:10:37;18.97;;;8.60;;
21697;SDS011;11010;49.548;11.926;2023-04-21T01:13:04;20.43;;;8.73;;
21697;SDS011;11010;49.548;11.926;2023-04-21T01:15:31;19.17;;;9.00;;
21697;SDS011;11010;49.548;11.926;2023-04-21T01:17:59;19.17;;;8.00;;
21697;SDS011;11010;49.548;11.926;2023-04-21T01:20:26;19.77;;;9.50;;
21697;SDS011;11010;49.548;11.926;2023-04-21T01:22:56;17.63;;;8.20;;
21697;SDS011;11010;49.548;11.926;2023-04-21T01:25:23;18.40;;;8.87;;
21697;SDS011;11010;49.548;11.926;2023-04-21T01:27:54;19.90;;;8.73;;
21697;SDS011;11010;49.548;11.926;2023-04-21T01:30:21;16.83;;;8.17;;
21697;SDS011;11010;49.548;11.926;2023-04-21T01:32:49;18.70;;;8.00;;
21697;SDS011;11010;49.548;11.926;2023-04-21T01:35:17;18.47;;;8.40;;
21697;SDS011;11010;49.548;11.926;2023-04-21T01:37:44;20.50;;;8.70;;
21697;SDS011;11010;49.548;11.926;2023-04-21T01:40:11;19.00;;;8.83;;
21697;SDS011;11010;49.548;11.926;2023-04-21T01:42:39;18.77;;;8.77;;
21697;SDS011;11010;49.548;11.926;2023-04-21T01:45:09;20.23;;;8.33;;
21697;SDS011;11010;49.548;11.926;2023-04-21T01:47:37;18.90;;;8.37;;
21697;SDS011;11010;49.548;11.926;2023-04-21T01:50:04;17.40;;;7.80;;
21697;SDS011;11010;49.548;11.926;2023-04-21T01:52:33;17.33;;;7.93;;
21697;SDS011;11010;49.548;11.926;2023-04-21T01:55:00;17.33;;;8.23;;
21697;SDS011;11010;49.548;11.926;2023-04-21T01:57:30;18.13;;;8.63;;
21697;SDS011;11010;49.548;11.926;2023-04-21T01:59:57;19.10;;;8.60;;
21697;SDS011;11010;49.548;11.926;2023-04-21T02:02:26;16.43;;;7.50;;
21697;SDS011;11010;49.548;11.926;2023-04-21T02:04:53;18.43;;;8.70;;
21697;SDS011;11010;49.548;11.926;2023-04-21T02:07:20;16.97;;;7.80;;
21697;SDS011;11010;49.548;11.926;2023-04-21T02:09:48;17.13;;;8.30;;
21697;SDS011;11010;49.548;11.926;2023-04-21T02:12:15;18.33;;;7.93;;
21697;SDS011;11010;49.548;11.926;2023-04-21T02:14:42;17.10;;;8.10;;
21697;SDS011;11010;49.548;11.926;2023-04-21T02:17:09;19.03;;;8.43;;
21697;SDS011;11010;49.548;11.926;2023-04-21T02:19:36;19.07;;;8.70;;
21697;SDS011;11010;49.548;11.926;2023-04-21T02:22:04;15.77;;;8.13;;
21697;SDS011;11010;49.548;11.926;2023-04-21T02:24:33;18.07;;;8.10;;
21697;SDS011;11010;49.548;11.926;2023-04-21T02:27:01;17.07;;;8.30;;
21697;SDS011;11010;49.548;11.926;2023-04-21T02:29:28;19.80;;;8.67;;
21697;SDS011;11010;49.548;11.926;2023-04-21T02:31:56;17.43;;;8.10;;
21697;SDS011;11010;49.548;11.926;2023-04-21T02:34:39;15.77;;;7.33;;
21697;SDS011;11010;49.548;11.926;2023-04-21T02:37:07;18.27;;;8.50;;
21697;SDS011;11010;49.548;11.926;2023-04-21T02:39:34;17.90;;;8.27;;
21697;SDS011;11010;49.548;11.926;2023-04-21T02:42:04;18.07;;;8.17;;
21697;SDS011;11010;49.548;11.926;2023-04-21T02:44:31;18.33;;;7.93;;
21697;SDS011;11010;49.548;11.926;2023-04-21T02:46:58;18.50;;;8.40;;
21697;SDS011;11010;49.548;11.926;2023-04-21T02:49:26;19.10;;;8.17;;
21697;SDS011;11010;49.548;11.926;2023-04-21T02:51:56;18.83;;;8.20;;
21697;SDS011;11010;49.548;11.926;2023-04-21T02:54:24;18.70;;;8.07;;
21697;SDS011;11010;49.548;11.926;2023-04-21T02:56:51;17.40;;;8.07;;
21697;SDS011;11010;49.548;11.926;2023-04-21T02:59:18;18.10;;;7.97;;
21697;SDS011;11010;49.548;11.926;2023-04-21T03:01:45;17.53;;;8.07;;
21697;SDS011;11010;49.548;11.926;2023-04-21T03:04:14;19.37;;;8.27;;
21697;SDS011;11010;49.548;11.926;2023-04-21T03:06:42;16.50;;;7.67;;
21697;SDS011;11010;49.548;11.926;2023-04-21T03:09:10;16.97;;;8.10;;
21697;SDS011;11010;49.548;11.926;2023-04-21T03:11:38;18.53;;;7.87;;
21697;SDS011;11010;49.548;11.926;2023-04-21T03:14:05;16.97;;;7.83;;
21697;SDS011;11010;49.548;11.926;2023-04-21T03:16:32;16.97;;;7.53;;
21697;SDS011;11010;49.548;11.926;2023-04-21T03:18:59;17.57;;;7.93;;
21697;SDS011;11010;49.548;11.926;2023-04-21T03:21:27;18.83;;;8.47;;
21697;SDS011;11010;49.548;11.926;2023-04-21T03:23:54;19.40;;;7.60;;
21697;SDS011;11010;49.548;11.926;2023-04-21T03:26:21;17.00;;;7.57;;
21697;SDS011;11010;49.548;11.926;2023-04-21T03:28:49;17.03;;;7.47;;
21697;SDS011;11010;49.548;11.926;2023-04-21T03:31:16;16.30;;;7.17;;
21697;SDS011;11010;49.548;11.926;2023-04-21T03:33:43;16.07;;;7.33;;
21697;SDS011;11010;49.548;11.926;2023-04-21T03:36:10;17.33;;;7.70;;
21697;SDS011;11010;49.548;11.926;2023-04-21T03:38:38;16.37;;;7.60;;
21697;SDS011;11010;49.548;11.926;2023-04-21T03:41:05;16.20;;;7.33;;
21697;SDS011;11010;49.548;11.926;2023-04-21T03:43:32;17.60;;;7.40;;
21697;SDS011;11010;49.548;11.926;2023-04-21T03:45:59;15.30;;;7.33;;
21697;SDS011;11010;49.548;11.926;2023-04-21T03:48:27;16.87;;;7.07;;
21697;SDS011;11010;49.548;11.926;2023-04-21T03:50:54;16.53;;;6.93;;
21697;SDS011;11010;49.548;11.926;2023-04-21T03:53:22;14.47;;;7.00;;
21697;SDS011;11010;49.548;11.926;2023-04-21T03:55:49;15.13;;;7.03;;
21697;SDS011;11010;49.548;11.926;2023-04-21T03:58:17;16.40;;;7.03;;
21697;SDS011;11010;49.548;11.926;2023-04-21T04:00:44;18.40;;;7.50;;
21697;SDS011;11010;49.548;11.926;2023-04-21T04:03:11;16.00;;;7.13;;
21697;SDS011;11010;49.548;11.926;2023-04-21T04:05:38;16.60;;;7.90;;
21697;SDS011;11010;49.548;11.926;2023-04-21T04:08:06;15.80;;;6.87;;
21697;SDS011;11010;49.548;11.926;2023-04-21T04:10:33;16.03;;;7.33;;
21697;SDS011;11010;49.548;11.926;2023-04-21T04:13:00;13.93;;;6.77;;
21697;SDS011;11010;49.548;11.926;2023-04-21T04:15:29;16.60;;;7.53;;
21697;SDS011;11010;49.548;11.926;2023-04-21T04:17:56;18.73;;;8.03;;
21697;SDS011;11010;49.548;11.926;2023-04-21T04:20:23;17.77;;;7.93;;
21697;SDS011;11010;49.548;11.926;2023-04-21T04:22:50;17.53;;;7.73;;
21697;SDS011;11010;49.548;11.926;2023-04-21T04:25:17;17.13;;;7.53;;
21697;SDS011;11010;49.548;11.926;2023-04-21T04:27:44;17.20;;;7.63;;
21697;SDS011;11010;49.548;11.926;2023-04-21T04:30:12;16.83;;;7.27;;
21697;SDS011;11010;49.548;11.926;2023-04-21T04:32:39;17.33;;;7.80;;
21697;SDS011;11010;49.548;11.926;2023-04-21T04:35:07;16.83;;;8.63;;
21697;SDS011;11010;49.548;11.926;2023-04-21T04:37:35;16.47;;;7.67;;
21697;SDS011;11010;49.548;11.926;2023-04-21T04:40:03;18.30;;;8.37;;
21697;SDS011;11010;49.548;11.926;2023-04-21T04:42:32;16.67;;;8.03;;
21697;SDS011;11010;49.548;11.926;2023-04-21T04:45:00;18.60;;;8.07;;
21697;SDS011;11010;49.548;11.926;2023-04-21T04:47:28;19.70;;;8.90;;
21697;SDS011;11010;49.548;11.926;2023-04-21T04:49:55;16.90;;;7.67;;
21697;SDS011;11010;49.548;11.926;2023-04-21T04:52:22;20.07;;;8.60;;
21697;SDS011;11010;49.548;11.926;2023-04-21T04:54:49;21.10;;;8.87;;
21697;SDS011;11010;49.548;11.926;2023-04-21T04:57:16;20.63;;;9.27;;
21697;SDS011;11010;49.548;11.926;2023-04-21T04:59:43;19.63;;;8.80;;
21697;SDS011;11010;49.548;11.926;2023-04-21T05:02:12;18.17;;;9.27;;
21697;SDS011;11010;49.548;11.926;2023-04-21T05:04:39;19.53;;;9.20;;
21697;SDS011;11010;49.548;11.926;2023-04-21T05:07:06;17.77;;;8.40;;
21697;SDS011;11010;49.548;11.926;2023-04-21T05:09:33;19.37;;;9.43;;
21697;SDS011;11010;49.548;11.926;2023-04-21T05:12:01;18.07;;;8.70;;
21697;SDS011;11010;49.548;11.926;2023-04-21T05:14:28;19.17;;;9.33;;
21697;SDS011;11010;49.548;11.926;2023-04-21T05:16:55;18.17;;;8.23;;
21697;SDS011;11010;49.548;11.926;2023-04-21T05:19:23;20.40;;;9.03;;
21697;SDS011;11010;49.548;11.926;2023-04-21T05:21:50;18.90;;;9.17;;
21697;SDS011;11010;49.548;11.926;2023-04-21T05:24:17;18.73;;;8.87;;
21697;SDS011;11010;49.548;11.926;2023-04-21T05:26:49;18.73;;;9.30;;
21697;SDS011;11010;49.548;11.926;2023-04-21T05:29:16;19.60;;;8.90;;
21697;SDS011;11010;49.548;11.926;2023-04-21T05:31:43;19.30;;;9.13;;
21697;SDS011;11010;49.548;11.926;2023-04-21T05:34:10;22.77;;;9.93;;
21697;SDS011;11010;49.548;11.926;2023-04-21T05:36:39;19.77;;;8.37;;
21697;SDS011;11010;49.548;11.926;2023-04-21T05:39:08;19.50;;;9.07;;
21697;SDS011;11010;49.548;11.926;2023-04-21T05:41:35;21.63;;;10.07;;
21697;SDS011;11010;49.548;11.926;2023-04-21T05:44:02;20.87;;;9.10;;
21697;SDS011;11010;49.548;11.926;2023-04-21T05:46:29;21.70;;;10.03;;
21697;SDS011;11010;49.548;11.926;2023-04-21T05:48:56;21.93;;;9.60;;
21697;SDS011;11010;49.548;11.926;2023-04-21T05:51:23;21.67;;;9.03;;
21697;SDS011;11010;49.548;11.926;2023-04-21T05:53:50;19.13;;;9.13;;
21697;SDS011;11010;49.548;11.926;2023-04-21T05:56:18;21.10;;;9.53;;
21697;SDS011;11010;49.548;11.926;2023-04-21T05:58:45;22.77;;;9.77;;
21697;SDS011;11010;49.548;11.926;2023-04-21T06:01:12;20.47;;;8.90;;
21697;SDS011;11010;49.548;11.926;2023-04-21T06:03:41;19.93;;;8.87;;
21697;SDS011;11010;49.548;11.926;2023-04-21T06:06:08;19.63;;;8.37;;
21697;SDS011;11010;49.548;11.926;2023-04-21T06:08:37;20.03;;;9.90;;
21697;SDS011;11010;49.548;11.926;2023-04-21T06:11:04;20.20;;;8.97;;
21697;SDS011;11010;49.548;11.926;2023-04-21T06:13:31;19.47;;;9.03;;
21697;SDS011;11010;49.548;11.926;2023-04-21T06:15:58;22.10;;;9.73;;
21697;SDS011;11010;49.548;11.926;2023-04-21T06:18:25;20.83;;;9.53;;
21697;SDS011;11010;49.548;11.926;2023-04-21T06:20:53;20.60;;;9.47;;
21697;SDS011;11010;49.548;11.926;2023-04-21T06:23:20;20.23;;;9.37;;
21697;SDS011;11010;49.548;11.926;2023-04-21T06:28:44;18.50;;;8.93;;
21697;SDS011;11010;49.548;11.926;2023-04-21T06:31:12;18.90;;;8.90;;
21697;SDS011;11010;49.548;11.926;2023-04-21T06:33:41;21.00;;;9.97;;
21697;SDS011;11010;49.548;11.926;2023-04-21T06:36:09;23.87;;;10.60;;
21697;SDS011;11010;49.548;11.926;2023-04-21T06:38:36;23.77;;;10.43;;
21697;SDS011;11010;49.548;11.926;2023-04-21T06:41:08;21.53;;;10.17;;
21697;SDS011;11010;49.548;11.926;2023-04-21T06:43:35;24.97;;;10.13;;
21697;SDS011;11010;49.548;11.926;2023-04-21T06:46:03;23.20;;;10.30;;
21697;SDS011;11010;49.548;11.926;2023-04-21T06:48:30;20.40;;;9.63;;
21697;SDS011;11010;49.548;11.926;2023-04-21T06:50:57;21.80;;;10.07;;
21697;SDS011;11010;49.548;11.926;2023-04-21T06:53:26;22.27;;;9.87;;
21697;SDS011;11010;49.548;11.926;2023-04-21T06:55:53;20.00;;;9.50;;
21697;SDS011;11010;49.548;11.926;2023-04-21T06:58:20;20.23;;;9.67;;
21697;SDS011;11010;49.548;11.926;2023-04-21T07:00:47;21.53;;;9.53;;
21697;SDS011;11010;49.548;11.926;2023-04-21T07:03:14;19.47;;;8.87;;
21697;SDS011;11010;49.548;11.926;2023-04-21T07:05:42;19.87;;;9.03;;
21697;SDS011;11010;49.548;11.926;2023-04-21T07:08:09;18.63;;;9.33;;
21697;SDS011;11010;49.548;11.926;2023-04-21T07:10:36;19.33;;;9.17;;
21697;SDS011;11010;49.548;11.926;2023-04-21T07:13:03;20.57;;;8.83;;
21697;SDS011;11010;49.548;11.926;2023-04-21T07:15:30;20.70;;;9.17;;
21697;SDS011;11010;49.548;11.926;2023-04-21T07:17:57;20.03;;;8.83;;
21697;SDS011;11010;49.548;11.926;2023-04-21T07:20:25;20.30;;;9.33;;
21697;SDS011;11010;49.548;11.926;2023-04-21T07:22:52;19.20;;;9.03;;
21697;SDS011;11010;49.548;11.926;2023-04-21T07:25:19;19.53;;;9.37;;
21697;SDS011;11010;49.548;11.926;2023-04-21T07:27:46;20.70;;;10.00;;
21697;SDS011;11010;49.548;11.926;2023-04-21T07:30:14;18.50;;;8.70;;
21697;SDS011;11010;49.548;11.926;2023-04-21T07:32:41;18.47;;;8.60;;
21697;SDS011;11010;49.548;11.926;2023-04-21T07:35:08;18.40;;;8.37;;
21697;SDS011;11010;49.548;11.926;2023-04-21T07:37:35;17.50;;;8.73;;
21697;SDS011;11010;49.548;11.926;2023-04-21T07:40:02;19.30;;;8.47;;
21697;SDS011;11010;49.548;11.926;2023-04-21T07:42:30;19.43;;;8.97;;
21697;SDS011;11010;49.548;11.926;2023-04-21T07:44:57;18.30;;;8.80;;
21697;SDS011;11010;49.548;11.926;2023-04-21T07:47:26;18.03;;;8.47;;
21697;SDS011;11010;49.548;11.926;2023-04-21T07:49:54;19.43;;;9.17;;
21697;SDS011;11010;49.548;11.926;2023-04-21T07:52:21;19.00;;;8.77;;
21697;SDS011;11010;49.548;11.926;2023-04-21T07:54:48;17.23;;;8.03;;
21697;SDS011;11010;49.548;11.926;2023-04-21T07:57:16;17.00;;;8.40;;
21697;SDS011;11010;49.548;11.926;2023-04-21T07:59:43;16.83;;;7.90;;
21697;SDS011;11010;49.548;11.926;2023-04-21T08:02:10;20.43;;;8.50;;
21697;SDS011;11010;49.548;11.926;2023-04-21T08:04:37;15.47;;;7.40;;
21697;SDS011;11010;49.548;11.926;2023-04-21T08:07:05;18.10;;;8.50;;
21697;SDS011;11010;49.548;11.926;2023-04-21T08:09:32;18.43;;;8.83;;
21697;SDS011;11010;49.548;11.926;2023-04-21T08:11:59;20.47;;;8.70;;
21697;SDS011;11010;49.548;11.926;2023-04-21T08:14:27;18.07;;;7.73;;
21697;SDS011;11010;49.548;11.926;2023-04-21T08:16:54;17.87;;;8.30;;
21697;SDS011;11010;49.548;11.926;2023-04-21T08:19:22;18.47;;;8.37;;
21697;SDS011;11010;49.548;11.926;2023-04-21T08:21:50;16.53;;;7.77;;
21697;SDS011;11010;49.548;11.926;2023-04-21T08:24:17;18.67;;;8.53;;
21697;SDS011;11010;49.548;11.926;2023-04-21T08:26:45;16.53;;;8.27;;
21697;SDS011;11010;49.548;11.926;2023-04-21T08:29:12;18.87;;;8.13;;
21697;SDS011;11010;49.548;11.926;2023-04-21T08:31:39;17.50;;;7.87;;
21697;SDS011;11010;49.548;11.926;2023-04-21T08:34:07;16.07;;;7.17;;
21697;SDS011;11010;49.548;11.926;2023-04-21T08:36:34;16.73;;;7.87;;
21697;SDS011;11010;49.548;11.926;2023-04-21T08:39:01;14.33;;;7.13;;
21697;SDS011;11010;49.548;11.926;2023-04-21T08:41:28;15.83;;;7.33;;
21697;SDS011;11010;49.548;11.926;2023-04-21T08:43:55;16.73;;;7.13;;
21697;SDS011;11010;49.548;11.926;2023-04-21T08:46:23;16.13;;;7.47;;
21697;SDS011;11010;49.548;11.926;2023-04-21T08:48:53;16.20;;;7.83;;
21697;SDS011;11010;49.548;11.926;2023-04-21T08:51:21;15.53;;;7.40;;
21697;SDS011;11010;49.548;11.926;2023-04-21T08:53:49;17.20;;;7.40;;
21697;SDS011;11010;49.548;11.926;2023-04-21T08:56:17;18.50;;;7.63;;
21697;SDS011;11010;49.548;11.926;2023-04-21T08:58:44;15.43;;;6.80;;
21697;SDS011;11010;49.548;11.926;2023-04-21T09:01:12;15.73;;;7.03;;
21697;SDS011;11010;49.548;11.926;2023-04-21T09:03:39;15.13;;;7.00;;
21697;SDS011;11010;49.548;11.926;2023-04-21T09:06:07;14.83;;;6.63;;
21697;SDS011;11010;49.548;11.926;2023-04-21T09:08:36;13.67;;;6.17;;
21697;SDS011;11010;49.548;11.926;2023-04-21T09:11:07;13.67;;;6.57;;
21697;SDS011;11010;49.548;11.926;2023-04-21T09:13:40;15.30;;;6.70;;
21697;SDS011;11010;49.548;11.926;2023-04-21T09:16:16;15.07;;;6.87;;
21697;SDS011;11010;49.548;11.926;2023-04-21T09:18:47;14.20;;;6.10;;
21697;SDS011;11010;49.548;11.926;2023-04-21T09:21:15;13.17;;;5.93;;
21697;SDS011;11010;49.548;11.926;2023-04-21T09:26:16;13.40;;;5.60;;
21697;SDS011;11010;49.548;11.926;2023-04-21T09:28:45;11.93;;;5.63;;
21697;SDS011;11010;49.548;11.926;2023-04-21T09:31:20;15.00;;;6.03;;
21697;SDS011;11010;49.548;11.926;2023-04-21T09:33:55;13.00;;;5.70;;
21697;SDS011;11010;49.548;11.926;2023-04-21T09:36:27;12.37;;;5.70;;
21697;SDS011;11010;49.548;11.926;2023-04-21T09:39:00;14.03;;;6.50;;
21697;SDS011;11010;49.548;11.926;2023-04-21T09:41:48;15.27;;;6.30;;
21697;SDS011;11010;49.548;11.926;2023-04-21T09:44:15;13.57;;;5.80;;
21697;SDS011;11010;49.548;11.926;2023-04-21T09:46:43;16.90;;;6.27;;
21697;SDS011;11010;49.548;11.926;2023-04-21T09:49:18;14.10;;;6.20;;
21697;SDS011;11010;49.548;11.926;2023-04-21T09:51:48;13.93;;;6.00;;
21697;SDS011;11010;49.548;11.926;2023-04-21T09:54:36;15.00;;;6.80;;
21697;SDS011;11010;49.548;11.926;2023-04-21T09:57:10;11.90;;;5.80;;
21697;SDS011;11010;49.548;11.926;2023-04-21T09:59:43;14.10;;;6.33;;
21697;SDS011;11010;49.548;11.926;2023-04-21T10:02:11;16.43;;;6.60;;
21697;SDS011;11010;49.548;11.926;2023-04-21T10:04:40;17.47;;;7.10;;
21697;SDS011;11010;49.548;11.926;2023-04-21T10:07:09;14.67;;;5.90;;
21697;SDS011;11010;49.548;11.926;2023-04-21T10:12:34;13.50;;;6.30;;
21697;SDS011;11010;49.548;11.926;2023-04-21T10:15:05;13.83;;;5.60;;
21697;SDS011;11010;49.548;11.926;2023-04-21T10:17:52;13.67;;;5.50;;
21697;SDS011;11010;49.548;11.926;2023-04-21T10:20:19;15.63;;;5.60;;
21697;SDS011;11010;49.548;11.926;2023-04-21T10:22:46;12.13;;;5.60;;
21697;SDS011;11010;49.548;11.926;2023-04-21T10:25:24;13.20;;;5.50;;
21697;SDS011;11010;49.548;11.926;2023-04-21T10:27:55;11.77;;;5.50;;
21697;SDS011;11010;49.548;11.926;2023-04-21T10:30:23;12.13;;;5.13;;
21697;SDS011;11010;49.548;11.926;2023-04-21T10:33:01;13.80;;;5.57;;
21697;SDS011;11010;49.548;11.926;2023-04-21T10:38:40;10.73;;;4.77;;
21697;SDS011;11010;49.548;11.926;2023-04-21T10:41:27;12.37;;;4.73;;
21697;SDS011;11010;49.548;11.926;2023-04-21T10:43:59;11.40;;;4.67;;
21697;SDS011;11010;49.548;11.926;2023-04-21T10:46:39;12.13;;;4.47;;
21697;SDS011;11010;49.548;11.926;2023-04-21T10:49:24;12.60;;;4.80;;
21697;SDS011;11010;49.548;11.926;2023-04-21T10:54:25;10.67;;;4.23;;
21697;SDS011;11010;49.548;11.926;2023-04-21T10:56:55;11.07;;;4.63;;
21697;SDS011;11010;49.548;11.926;2023-04-21T10:59:25;11.40;;;4.70;;
21697;SDS011;11010;49.548;11.926;2023-04-21T11:01:52;12.87;;;5.03;;
21697;SDS011;11010;49.548;11.926;2023-04-21T11:04:20;11.10;;;4.60;;
21697;SDS011;11010;49.548;11.926;2023-04-21T11:09:33;11.10;;;4.70;;
21697;SDS011;11010;49.548;11.926;2023-04-21T11:12:02;10.30;;;4.10;;
21697;SDS011;11010;49.548;11.926;2023-04-21T11:14:33;10.63;;;4.17;;
21697;SDS011;11010;49.548;11.926;2023-04-21T11:17:03;10.93;;;4.27;;
21697;SDS011;11010;49.548;11.926;2023-04-21T11:19:31;9.38;;;3.85;;
21697;SDS011;11010;49.548;11.926;2023-04-21T11:21:58;11.75;;;3.95;;
21697;SDS011;11010;49.548;11.926;2023-04-21T11:24:26;11.23;;;4.25;;
21697;SDS011;11010;49.548;11.926;2023-04-21T11:26:53;10.00;;;4.00;;
21697;SDS011;11010;49.548;11.926;2023-04-21T11:29:20;12.60;;;4.00;;
21697;SDS011;11010;49.548;11.926;2023-04-21T11:31:47;10.18;;;4.00;;
21697;SDS011;11010;49.548;11.926;2023-04-21T11:34:18;9.45;;;3.63;;
21697;SDS011;11010;49.548;11.926;2023-04-21T11:36:47;17.83;;;4.75;;
21697;SDS011;11010;49.548;11.926;2023-04-21T11:39:16;11.00;;;3.78;;
21697;SDS011;11010;49.548;11.926;2023-04-21T11:41:48;9.13;;;3.80;;
21697;SDS011;11010;49.548;11.926;2023-04-21T11:47:12;9.32;;;3.97;;
21697;SDS011;11010;49.548;11.926;2023-04-21T11:49:47;9.82;;;4.03;;
21697;SDS011;11010;49.548;11.926;2023-04-21T11:54:54;10.73;;;3.35;;
21697;SDS011;11010;49.548;11.926;2023-04-21T11:57:26;11.55;;;3.78;;
21697;SDS011;11010;49.548;11.926;2023-04-21T11:59:58;9.07;;;3.50;;
21697;SDS011;11010;49.548;11.926;2023-04-21T12:02:30;9.23;;;3.25;;
21697;SDS011;11010;49.548;11.926;2023-04-21T12:05:05;8.07;;;3.10;;
21697;SDS011;11010;49.548;11.926;2023-04-21T12:07:43;11.15;;;3.40;;
21697;SDS011;11010;49.548;11.926;2023-04-21T12:10:18;8.75;;;3.28;;
21697;SDS011;11010;49.548;11.926;2023-04-21T12:12:48;8.20;;;3.05;;
21697;SDS011;11010;49.548;11.926;2023-04-21T12:15:16;10.82;;;3.28;;
21697;SDS011;11010;49.548;11.926;2023-04-21T12:17:46;8.52;;;3.13;;
21697;SDS011;11010;49.548;11.926;2023-04-21T12:20:17;8.45;;;3.45;;
21697;SDS011;11010;49.548;11.926;2023-04-21T12:22:45;8.85;;;3.53;;
21697;SDS011;11010;49.548;11.926;2023-04-21T12:25:13;10.35;;;3.47;;
21697;SDS011;11010;49.548;11.926;2023-04-21T12:27:47;8.02;;;3.30;;
21697;SDS011;11010;49.548;11.926;2023-04-21T12:30:19;10.55;;;3.15;;
21697;SDS011;11010;49.548;11.926;2023-04-21T12:32:46;9.57;;;3.60;;
21697;SDS011;11010;49.548;11.926;2023-04-21T12:35:14;12.40;;;3.50;;
21697;SDS011;11010;49.548;11.926;2023-04-21T12:37:41;10.57;;;3.20;;
21697;SDS011;11010;49.548;11.926;2023-04-21T12:40:10;8.30;;;3.17;;
21697;SDS011;11010;49.548;11.926;2023-04-21T12:42:37;9.07;;;3.00;;
21697;SDS011;11010;49.548;11.926;2023-04-21T12:45:05;9.05;;;3.47;;
21697;SDS011;11010;49.548;11.926;2023-04-21T12:47:32;10.00;;;3.40;;
21697;SDS011;11010;49.548;11.926;2023-04-21T12:50:00;8.85;;;3.10;;
21697;SDS011;11010;49.548;11.926;2023-04-21T12:52:27;12.23;;;3.40;;
21697;SDS011;11010;49.548;11.926;2023-04-21T12:54:55;8.70;;;3.35;;
21697;SDS011;11010;49.548;11.926;2023-04-21T12:57:22;9.23;;;3.28;;
21697;SDS011;11010;49.548;11.926;2023-04-21T12:59:50;8.85;;;3.25;;
21697;SDS011;11010;49.548;11.926;2023-04-21T13:02:17;9.63;;;3.17;;
21697;SDS011;11010;49.548;11.926;2023-04-21T13:04:45;9.55;;;3.75;;
21697;SDS011;11010;49.548;11.926;2023-04-21T13:07:12;8.70;;;3.20;;
21697;SDS011;11010;49.548;11.926;2023-04-21T13:09:41;8.27;;;3.25;;
21697;SDS011;11010;49.548;11.926;2023-04-21T13:12:09;8.90;;;3.47;;
21697;SDS011;11010;49.548;11.926;2023-04-21T13:14:36;8.35;;;2.88;;
21697;SDS011;11010;49.548;11.926;2023-04-21T13:17:03;7.30;;;2.58;;
21697;SDS011;11010;49.548;11.926;2023-04-21T13:19:31;7.53;;;2.75;;
21697;SDS011;11010;49.548;11.926;2023-04-21T13:21:58;7.00;;;2.28;;
21697;SDS011;11010;49.548;11.926;2023-04-21T13:24:26;7.47;;;2.38;;
21697;SDS011;11010;49.548;11.926;2023-04-21T13:26:53;7.25;;;2.50;;
21697;SDS011;11010;49.548;11.926;2023-04-21T13:29:21;9.18;;;2.60;;
21697;SDS011;11010;49.548;11.926;2023-04-21T13:31:48;8.85;;;2.65;;
21697;SDS011;11010;49.548;11.926;2023-04-21T13:34:16;8.13;;;2.92;;
21697;SDS011;11010;49.548;11.926;2023-04-21T13:36:43;8.55;;;3.38;;
21697;SDS011;11010;49.548;11.926;2023-04-21T13:39:10;9.15;;;3.13;;
21697;SDS011;11010;49.548;11.926;2023-04-21T13:41:37;8.07;;;3.00;;
21697;SDS011;11010;49.548;11.926;2023-04-21T13:44:04;8.57;;;2.88;;
21697;SDS011;11010;49.548;11.926;2023-04-21T13:46:31;7.60;;;2.65;;
21697;SDS011;11010;49.548;11.926;2023-04-21T13:48:59;8.38;;;3.03;;
21697;SDS011;11010;49.548;11.926;2023-04-21T13:51:26;9.50;;;3.10;;
21697;SDS011;11010;49.548;11.926;2023-04-21T13:53:55;7.53;;;2.72;;
21697;SDS011;11010;49.548;11.926;2023-04-21T13:56:22;8.10;;;2.95;;
21697;SDS011;11010;49.548;11.926;2023-04-21T13:58:49;8.23;;;3.30;;
21697;SDS011;11010;49.548;11.926;2023-04-21T14:01:17;8.13;;;2.80;;
21697;SDS011;11010;49.548;11.926;2023-04-21T14:03:47;8.50;;;2.78;;
21697;SDS011;11010;49.548;11.926;2023-04-21T14:06:14;8.70;;;2.70;;
21697;SDS011;11010;49.548;11.926;2023-04-21T14:08:42;8.50;;;2.95;;
21697;SDS011;11010;49.548;11.926;2023-04-21T14:11:09;8.45;;;3.00;;
21697;SDS011;11010;49.548;11.926;2023-04-21T14:13:37;8.45;;;3.22;;
21697;SDS011;11010;49.548;11.926;2023-04-21T14:16:13;7.88;;;3.20;;
21697;SDS011;11010;49.548;11.926;2023-04-21T14:18:41;8.07;;;3.10;;
21697;SDS011;11010;49.548;11.926;2023-04-21T14:21:10;11.43;;;3.67;;
21697;SDS011;11010;49.548;11.926;2023-04-21T14:23:37;8.20;;;3.20;;
21697;SDS011;11010;49.548;11.926;2023-04-21T14:26:04;12.90;;;3.63;;
21697;SDS011;11010;49.548;11.926;2023-04-21T14:28:32;8.93;;;3.20;;
21697;SDS011;11010;49.548;11.926;2023-04-21T14:30:59;11.10;;;3.30;;
21697;SDS011;11010;49.548;11.926;2023-04-21T14:33:27;10.32;;;3.80;;
21697;SDS011;11010;49.548;11.926;2023-04-21T14:35:55;14.35;;;3.88;;
21697;SDS011;11010;49.548;11.926;2023-04-21T14:38:22;8.80;;;3.28;;
21697;SDS011;11010;49.548;11.926;2023-04-21T14:40:50;8.55;;;3.20;;
21697;SDS011;11010;49.548;11.926;2023-04-21T14:43:20;8.27;;;2.83;;
21697;SDS011;11010;49.548;11.926;2023-04-21T14:45:47;9.27;;;3.13;;
21697;SDS011;11010;49.548;11.926;2023-04-21T14:48:14;8.80;;;3.10;;
21697;SDS011;11010;49.548;11.926;2023-04-21T14:50:42;8.07;;;3.13;;
21697;SDS011;11010;49.548;11.926;2023-04-21T14:53:09;10.48;;;3.65;;